Time;durP1;ratioP1;P1;durP2;ratioP2;P2;SDS_P1;SDS_P2;PMS_P1;PMS_P2;Temp;Humidity;BMP_temperature;BMP_pressure;BME280_temperature;BME280_humidity;BME280_pressure;Samples;Min_cycle;Max_cycle;Signal;HPM_P1;HPM_P2
2022/04/19 00:01:11;;;;;;;8.80;4.45;;;11.60;99.90;;;;;;4937329;29;20044;-92
2022/04/19 00:03:38;;;;;;;7.90;4.18;;;11.70;99.90;;;;;;4938254;29;20040;-92
2022/04/19 00:06:04;;;;;;;8.23;4.05;;;11.50;99.90;;;;;;4938338;29;20027;-91
2022/04/19 00:08:30;;;;;;;9.57;4.90;;;11.50;99.90;;;;;;4939220;29;20031;-93
2022/04/19 00:10:56;;;;;;;9.02;4.60;;;11.50;99.90;;;;;;4938638;29;20051;-92
2022/04/19 00:13:22;;;;;;;15.25;4.80;;;11.50;99.90;;;;;;4936937;29;20042;-91
2022/04/19 00:15:48;;;;;;;8.93;4.32;;;11.40;99.90;;;;;;4936949;29;20020;-92
2022/04/19 00:18:14;;;;;;;8.45;4.90;;;11.30;99.90;;;;;;4936888;29;20035;-91
2022/04/19 00:20:42;;;;;;;9.43;4.50;;;11.40;99.90;;;;;;4937705;28;20499;-91
2022/04/19 00:23:15;;;;;;;7.97;5.03;;;11.40;99.90;;;;;;4936618;28;20480;-91
2022/04/19 00:25:52;;;;;;;7.55;4.90;;;11.30;99.90;;;;;;4936529;29;20038;-91
2022/04/19 00:28:18;;;;;;;9.82;4.95;;;11.30;99.90;;;;;;4936304;29;20029;-91
2022/04/19 00:30:46;;;;;;;10.30;5.15;;;11.30;99.90;;;;;;4935866;29;20027;-93
2022/04/19 00:33:11;;;;;;;8.23;4.85;;;11.20;99.90;;;;;;4935672;29;20047;-91
2022/04/19 00:35:38;;;;;;;8.80;4.45;;;11.20;99.90;;;;;;4935553;29;20028;-91
2022/04/19 00:38:04;;;;;;;6.82;4.55;;;11.20;99.90;;;;;;4935590;29;20028;-94
2022/04/19 00:40:30;;;;;;;11.23;5.30;;;11.20;99.90;;;;;;4935807;29;20023;-91
2022/04/19 00:42:57;;;;;;;10.52;5.43;;;11.20;99.90;;;;;;4936763;29;20028;-94
2022/04/19 00:45:23;;;;;;;11.40;5.10;;;11.30;99.90;;;;;;4936992;29;20028;-94
2022/04/19 00:47:53;;;;;;;11.73;5.45;;;11.20;99.90;;;;;;4936024;28;20036;-92
2022/04/19 00:50:19;;;;;;;8.05;4.55;;;11.20;99.90;;;;;;4935300;29;20023;-94
2022/04/19 00:52:45;;;;;;;11.70;4.82;;;11.20;99.90;;;;;;4936114;29;20023;-91
2022/04/19 00:55:11;;;;;;;7.85;4.88;;;11.20;99.90;;;;;;4937320;29;20078;-91
2022/04/19 00:57:39;;;;;;;11.52;5.20;;;11.20;99.90;;;;;;4940158;29;20055;-90
2022/04/19 01:00:08;;;;;;;9.55;4.97;;;11.20;99.90;;;;;;4939283;29;20027;-91
2022/04/19 01:02:35;;;;;;;11.63;4.55;;;11.20;99.90;;;;;;4939381;29;20038;-91
2022/04/19 01:08:23;;;;;;;21.83;5.45;;;11.20;99.90;;;;;;4941612;29;20103;-91
2022/04/19 01:17:47;;;;;;;10.25;5.38;;;11.10;99.90;;;;;;4940188;29;20030;-91
2022/04/19 01:20:13;;;;;;;10.73;5.13;;;11.00;99.90;;;;;;4939383;29;20030;-90
2022/04/19 01:22:42;;;;;;;8.85;5.10;;;11.00;99.90;;;;;;4938453;29;20056;-91
2022/04/19 01:25:10;;;;;;;12.40;5.45;;;10.90;99.90;;;;;;4938847;29;20042;-90
2022/04/19 01:27:36;;;;;;;12.38;5.57;;;10.90;99.90;;;;;;4938867;29;20039;-90
2022/04/19 01:30:08;;;;;;;10.25;5.13;;;10.90;99.90;;;;;;4939587;29;20051;-93
2022/04/19 01:32:34;;;;;;;12.18;4.90;;;11.00;99.90;;;;;;4939361;28;20028;-91
2022/04/19 01:35:07;;;;;;;9.95;5.07;;;11.00;99.90;;;;;;4938879;29;20520;-92
2022/04/19 01:37:36;;;;;;;;;;;10.90;99.90;;;;;;4939342;28;20595;-91
2022/04/19 01:40:18;;;;;;;9.20;4.80;;;10.90;99.90;;;;;;4935892;29;20023;-91
2022/04/19 01:42:50;;;;;;;9.25;5.32;;;10.90;99.90;;;;;;4938441;29;20527;-91
2022/04/19 01:45:26;;;;;;;8.68;5.00;;;10.80;99.90;;;;;;4938749;29;20135;-92
2022/04/19 01:47:53;;;;;;;9.20;5.53;;;10.80;99.90;;;;;;4938283;29;20114;-93
2022/04/19 01:50:21;;;;;;;8.48;4.95;;;10.80;99.90;;;;;;4938482;29;20127;-93
2022/04/19 01:52:48;;;;;;;10.10;4.82;;;10.70;99.90;;;;;;4938249;28;20031;-93
2022/04/19 01:55:15;;;;;;;8.85;5.35;;;10.60;99.90;;;;;;4938939;29;20094;-93
2022/04/19 01:57:46;;;;;;;10.45;5.40;;;10.60;99.90;;;;;;4939039;29;20035;-93
2022/04/19 02:00:12;;;;;;;11.18;5.60;;;10.60;99.90;;;;;;4938505;29;20126;-93
2022/04/19 02:02:39;;;;;;;9.60;4.90;;;10.60;99.90;;;;;;4938453;29;20031;-93
2022/04/19 02:05:05;;;;;;;12.68;5.03;;;10.60;99.90;;;;;;4938171;29;20067;-93
2022/04/19 02:07:32;;;;;;;10.35;5.80;;;10.60;99.90;;;;;;4937397;29;20031;-93
2022/04/19 02:10:01;;;;;;;10.07;5.60;;;10.60;99.90;;;;;;4938416;29;20489;-93
2022/04/19 02:12:27;;;;;;;9.55;5.32;;;10.50;99.90;;;;;;4939216;29;20080;-93
2022/04/19 02:14:54;;;;;;;11.55;5.25;;;10.50;99.90;;;;;;4938440;29;20031;-93
2022/04/19 02:17:22;;;;;;;12.65;5.18;;;10.60;99.90;;;;;;4938506;29;20023;-92
2022/04/19 02:19:48;;;;;;;11.52;5.60;;;10.60;99.90;;;;;;4938422;29;20040;-92
2022/04/19 02:22:13;;;;;;;8.55;5.45;;;10.70;99.90;;;;;;4938951;29;20385;-93
2022/04/19 02:24:39;;;;;;;9.23;5.45;;;10.70;99.90;;;;;;4941548;28;20031;-93
2022/04/19 02:27:05;;;;;;;9.38;5.40;;;10.70;99.90;;;;;;4941825;29;20035;-93
2022/04/19 02:29:34;;;;;;;13.02;6.43;;;10.80;99.90;;;;;;4938386;29;20082;-93
2022/04/19 02:32:00;;;;;;;13.27;6.05;;;10.80;99.90;;;;;;4937073;29;20083;-93
2022/04/19 02:34:25;;;;;;;10.52;5.40;;;10.90;99.90;;;;;;4937543;29;20032;-93
2022/04/19 02:36:53;;;;;;;12.75;5.35;;;10.90;99.90;;;;;;4937737;29;20118;-92
2022/04/19 02:39:19;;;;;;;8.93;5.53;;;11.00;99.90;;;;;;4937686;29;20043;-92
2022/04/19 02:41:45;;;;;;;10.18;5.97;;;11.00;99.90;;;;;;4937477;29;20028;-92
2022/04/19 02:44:11;;;;;;;15.13;6.10;;;11.00;99.90;;;;;;4937547;29;20408;-93
2022/04/19 02:46:37;;;;;;;12.38;5.35;;;11.00;99.90;;;;;;4937448;29;20036;-94
2022/04/19 02:49:04;;;;;;;9.60;5.40;;;11.00;99.90;;;;;;4937418;28;20032;-93
2022/04/19 02:51:32;;;;;;;12.98;6.05;;;11.10;99.90;;;;;;4937295;29;20551;-93
2022/04/19 02:53:57;;;;;;;10.57;5.63;;;11.10;99.90;;;;;;4937428;29;20023;-93
2022/04/19 02:56:23;;;;;;;12.18;5.80;;;11.20;99.90;;;;;;4938165;29;20457;-94
2022/04/19 02:58:49;;;;;;;12.65;6.35;;;11.20;99.90;;;;;;4938146;29;20035;-93
2022/04/19 03:01:15;;;;;;;13.63;6.00;;;11.20;99.90;;;;;;4937473;29;20119;-93
2022/04/19 03:03:41;;;;;;;11.57;5.68;;;11.20;99.90;;;;;;4937534;29;20035;-94
2022/04/19 03:06:07;;;;;;;10.75;6.40;;;11.20;99.90;;;;;;4938462;28;20067;-92
2022/04/19 03:08:34;;;;;;;11.52;6.32;;;11.20;99.90;;;;;;4939001;29;20075;-93
2022/04/19 03:11:00;;;;;;;10.02;5.60;;;11.20;99.90;;;;;;4938079;29;20064;-93
2022/04/19 03:13:27;;;;;;;10.57;6.55;;;11.20;99.90;;;;;;4937068;28;20468;-93
2022/04/19 03:15:54;;;;;;;8.93;5.55;;;11.20;99.90;;;;;;4937435;29;20020;-93
2022/04/19 03:18:20;;;;;;;9.60;6.32;;;11.30;99.90;;;;;;4942312;29;20096;-93
2022/04/19 03:20:46;;;;;;;12.02;6.53;;;11.30;99.90;;;;;;4941110;29;20052;-93
2022/04/19 03:28:53;;;;;;;13.10;6.30;;;11.30;99.90;;;;;;4922009;29;20063;-94
2022/04/19 03:31:18;;;;;;;10.75;6.25;;;11.30;99.90;;;;;;4920719;29;20175;-93
2022/04/19 03:33:44;;;;;;;10.45;6.15;;;11.30;99.90;;;;;;4919402;29;20523;-94
2022/04/19 03:36:09;;;;;;;10.30;6.50;;;11.30;99.90;;;;;;4921296;29;20099;-93
2022/04/19 03:38:36;;;;;;;13.38;6.53;;;11.30;99.90;;;;;;4922186;29;20040;-93
2022/04/19 03:41:03;;;;;;;12.18;6.75;;;11.30;99.90;;;;;;4924701;29;20036;-94
2022/04/19 03:43:30;;;;;;;12.93;6.72;;;11.30;99.90;;;;;;4923317;29;20024;-94
2022/04/19 03:45:56;;;;;;;12.70;6.35;;;11.40;99.90;;;;;;4916991;29;20170;-93
2022/04/19 03:48:21;;;;;;;14.02;6.82;;;11.30;99.90;;;;;;4916966;29;20062;-93
2022/04/19 03:50:47;;;;;;;14.15;6.90;;;11.40;99.90;;;;;;4916540;29;20156;-93
2022/04/19 03:53:12;;;;;;;12.20;7.53;;;11.40;99.90;;;;;;4917524;29;20028;-93
2022/04/19 03:55:38;;;;;;;13.43;7.50;;;11.40;99.90;;;;;;4919029;29;20035;-93
2022/04/19 03:58:04;;;;;;;12.07;7.22;;;11.40;99.90;;;;;;4920719;29;20092;-93
2022/04/19 04:00:30;;;;;;;11.68;6.63;;;11.40;99.90;;;;;;4919758;29;20144;-93
2022/04/19 04:02:56;;;;;;;16.08;7.47;;;11.40;99.90;;;;;;4918273;29;20035;-93
2022/04/19 04:05:24;;;;;;;15.48;7.38;;;11.40;99.90;;;;;;4938449;29;20046;-93
2022/04/19 04:07:50;;;;;;;17.60;7.82;;;11.40;99.90;;;;;;4955937;29;20023;-92
2022/04/19 04:10:16;;;;;;;12.77;7.57;;;11.40;99.90;;;;;;4955064;28;20054;-91
2022/04/19 04:12:42;;;;;;;14.55;7.88;;;11.40;99.90;;;;;;4954786;29;20487;-89
2022/04/19 04:15:08;;;;;;;19.80;8.68;;;11.40;99.90;;;;;;4954915;29;20023;-90
2022/04/19 04:17:34;;;;;;;14.30;8.70;;;11.40;99.90;;;;;;4953991;29;20027;-90
2022/04/19 04:20:00;;;;;;;18.02;8.75;;;11.40;99.90;;;;;;4955528;29;20440;-90
2022/04/19 04:22:27;;;;;;;15.35;9.23;;;11.40;99.90;;;;;;4954186;28;20090;-90
2022/04/19 04:24:52;;;;;;;15.90;8.82;;;11.50;99.90;;;;;;4954049;29;20031;-90
2022/04/19 04:27:18;;;;;;;19.63;9.35;;;11.40;99.90;;;;;;4954566;28;20034;-90
2022/04/19 04:29:44;;;;;;;17.85;9.65;;;11.40;99.90;;;;;;4972940;28;20031;-88
2022/04/19 04:32:10;;;;;;;22.85;9.20;;;11.40;99.90;;;;;;4973380;28;20023;-90
2022/04/19 04:34:36;;;;;;;19.60;10.48;;;11.50;99.90;;;;;;4973160;28;20398;-90
2022/04/19 04:37:01;;;;;;;24.00;10.30;;;11.40;99.90;;;;;;4961457;28;20054;-90
2022/04/19 04:39:27;;;;;;;24.48;10.93;;;11.40;99.90;;;;;;4968363;28;20454;-91
2022/04/19 04:41:53;;;;;;;18.13;10.95;;;11.50;99.90;;;;;;4958176;28;20042;-90
2022/04/19 04:44:19;;;;;;;22.00;11.63;;;11.60;99.90;;;;;;4966413;28;20023;-90
2022/04/19 04:49:39;;;;;;;19.17;12.15;;;11.60;99.90;;;;;;4956516;28;20030;-86
2022/04/19 04:52:07;;;;;;;24.65;13.80;;;11.60;99.90;;;;;;4964166;28;20027;-83
2022/04/19 04:54:34;;;;;;;26.73;13.90;;;11.50;99.90;;;;;;4964995;28;20053;-85
2022/04/19 04:57:01;;;;;;;22.55;14.23;;;11.60;99.90;;;;;;4956945;28;20034;-84
2022/04/19 04:59:26;;;;;;;27.55;16.17;;;11.60;99.90;;;;;;4963810;28;20050;-84
2022/04/19 05:01:52;;;;;;;26.95;15.60;;;11.50;99.90;;;;;;4955558;28;20467;-78
2022/04/19 05:04:20;;;;;;;24.85;14.82;;;11.50;99.90;;;;;;4933859;29;20032;-88
2022/04/19 05:06:45;;;;;;;28.50;14.98;;;11.50;99.90;;;;;;4949921;28;20121;-84
2022/04/19 05:09:11;;;;;;;24.80;15.00;;;11.50;99.90;;;;;;4962775;28;20054;-83
2022/04/19 05:11:37;;;;;;;24.95;12.60;;;11.50;99.90;;;;;;4965513;28;20019;-82
2022/04/19 05:14:02;;;;;;;30.17;13.55;;;11.60;99.90;;;;;;4966921;28;20037;-83
2022/04/19 05:16:28;;;;;;;23.63;12.50;;;11.60;99.90;;;;;;4967417;28;20031;-84
2022/04/19 10:26:42;;;;;;;15.13;9.85;;;12.60;99.90;;;;;;5863134;23;20050;-82
2022/04/19 10:29:20;;;;;;;16.42;10.88;;;12.60;99.90;;;;;;4975523;28;20436;-82
2022/04/19 10:32:28;;;;;;;17.60;10.23;;;12.60;99.90;;;;;;4997202;28;20069;-81
2022/04/19 10:35:03;;;;;;;18.90;10.55;;;12.60;99.90;;;;;;4952120;28;20046;-83
2022/04/19 10:37:29;;;;;;;16.42;10.27;;;12.60;99.90;;;;;;4937690;29;20039;-82
2022/04/19 10:39:58;;;;;;;17.48;10.80;;;12.80;99.90;;;;;;4932021;29;20030;-82
2022/04/19 10:42:37;;;;;;;17.25;10.70;;;12.80;99.90;;;;;;4919413;29;20468;-82
2022/04/19 10:45:11;;;;;;;17.10;11.05;;;12.90;99.90;;;;;;4933432;29;20039;-82
2022/04/19 10:47:57;;;;;;;17.08;10.35;;;13.10;99.90;;;;;;4938520;29;20038;-81
2022/04/19 10:50:39;;;;;;;20.00;10.98;;;13.10;99.90;;;;;;4953662;28;20131;-81
2022/04/19 10:53:12;;;;;;;20.77;11.52;;;13.20;99.90;;;;;;4953827;29;20118;-81
2022/04/19 10:55:57;;;;;;;20.55;10.60;;;13.10;99.90;;;;;;4953737;29;20043;-81
2022/04/19 10:58:44;;;;;;;19.98;10.38;;;13.20;99.90;;;;;;4953720;29;20118;-81
2022/04/19 11:01:30;;;;;;;14.98;10.18;;;13.10;99.90;;;;;;4948432;29;20058;-81
2022/04/19 11:03:56;;;;;;;14.52;9.73;;;13.20;99.90;;;;;;4930948;28;20038;-81
2022/04/19 11:06:32;;;;;;;22.58;10.50;;;13.40;99.90;;;;;;4963412;28;20045;-82
2022/04/19 11:09:19;;;;;;;22.15;11.52;;;13.60;99.90;;;;;;4964654;28;20059;-81
2022/04/19 11:11:56;;;;;;;16.88;10.50;;;14.30;99.90;;;;;;4993439;28;20103;-81
2022/04/19 11:14:36;;;;;;;14.82;9.90;;;14.60;99.90;;;;;;4994395;28;20019;-81
2022/04/19 11:17:21;;;;;;;17.33;9.55;;;14.60;99.90;;;;;;4992896;28;20080;-81
2022/04/19 11:19:54;;;;;;;15.73;9.10;;;14.60;99.90;;;;;;4994228;28;20027;-81
2022/04/19 11:22:41;;;;;;;17.63;10.18;;;14.50;99.90;;;;;;4992501;28;20026;-82
2022/04/19 14:35:09;;;;;;;23.73;9.60;;;12.90;99.90;;;;;;4994900;28;20034;-81
2022/04/19 14:37:35;;;;;;;19.13;8.73;;;12.80;99.90;;;;;;4983732;28;20398;-81
2022/04/19 14:40:00;;;;;;;22.00;9.05;;;12.90;99.90;;;;;;4975186;28;20035;-81
2022/04/19 14:42:29;;;;;;;20.90;10.32;;;12.80;99.90;;;;;;4975528;28;20101;-80
2022/04/19 14:44:55;;;;;;;22.45;9.60;;;12.90;99.90;;;;;;4992990;28;20023;-81
2022/04/19 14:47:21;;;;;;;17.30;9.35;;;13.00;99.90;;;;;;4994968;28;20064;-82
2022/04/19 14:49:47;;;;;;;21.90;10.00;;;12.90;99.90;;;;;;4994733;28;20015;-82
2022/04/19 14:52:16;;;;;;;19.50;10.77;;;12.80;99.90;;;;;;4994739;28;20026;-81
2022/04/19 14:54:46;;;;;;;16.77;10.00;;;12.70;99.90;;;;;;4981741;28;20027;-81
2022/04/19 14:57:13;;;;;;;20.52;10.18;;;12.80;99.90;;;;;;4975012;28;20031;-80
2022/04/19 14:59:39;;;;;;;25.40;10.48;;;12.90;99.90;;;;;;4980638;28;20023;-80
2022/04/19 15:02:05;;;;;;;19.83;10.93;;;12.60;99.90;;;;;;4992763;28;20069;-79
2022/04/19 15:04:31;;;;;;;25.42;11.18;;;12.60;99.90;;;;;;4979622;28;20451;-80
2022/04/19 15:06:57;;;;;;;24.50;9.50;;;12.70;99.90;;;;;;4993097;28;20034;-81
2022/04/19 15:09:24;;;;;;;20.88;9.98;;;12.60;99.90;;;;;;4978155;28;20014;-80
2022/04/19 15:11:52;;;;;;;17.02;9.50;;;12.60;99.90;;;;;;4971765;28;20478;-81
2022/04/19 15:14:19;;;;;;;16.63;8.48;;;12.60;99.90;;;;;;4973420;28;20010;-80
2022/04/19 15:16:45;;;;;;;21.80;9.05;;;12.60;99.90;;;;;;4974211;28;20070;-81
2022/04/19 15:19:11;;;;;;;22.65;7.28;;;12.70;99.90;;;;;;4981372;28;20673;-81
2022/04/19 15:21:36;;;;;;;17.83;6.75;;;12.70;99.90;;;;;;4988831;28;20035;-81
2022/04/19 15:24:02;;;;;;;11.63;5.68;;;12.70;99.90;;;;;;4982170;28;20398;-81
2022/04/19 15:26:28;;;;;;;13.73;4.93;;;12.60;99.90;;;;;;4993167;28;20110;-81
2022/04/19 15:28:54;;;;;;;18.70;4.75;;;12.40;99.90;;;;;;4977600;28;20177;-90
2022/04/19 15:31:19;;;;;;;18.02;4.72;;;12.30;99.90;;;;;;4956703;28;20438;-85
2022/04/19 15:33:47;;;;;;;19.67;4.82;;;12.20;99.90;;;;;;4965013;28;20076;-86
2022/04/19 15:36:13;;;;;;;13.02;3.72;;;12.10;99.90;;;;;;4973265;28;20034;-85
2022/04/19 15:38:39;;;;;;;16.30;4.20;;;12.10;99.90;;;;;;4972887;28;20029;-88
2022/04/19 15:41:05;;;;;;;19.20;4.93;;;12.10;99.90;;;;;;4956813;28;20027;-87
2022/04/19 15:43:31;;;;;;;17.45;4.95;;;12.00;99.90;;;;;;4957050;28;20518;-87
2022/04/19 15:45:56;;;;;;;17.38;4.10;;;12.10;99.90;;;;;;4954938;28;20499;-83
2022/04/19 15:48:23;;;;;;;13.23;5.10;;;11.90;99.90;;;;;;4959672;28;20034;-84
2022/04/19 15:50:52;;;;;;;18.80;4.38;;;12.00;99.90;;;;;;4954165;28;20032;-85
2022/04/19 15:53:40;;;;;;;19.92;4.40;;;12.00;99.90;;;;;;4954386;28;20019;-82
2022/04/19 15:56:06;;;;;;;19.42;4.32;;;12.10;99.90;;;;;;4953613;28;20066;-87
2022/04/19 15:58:32;;;;;;;18.90;4.50;;;12.10;99.90;;;;;;4953314;28;20024;-85
2022/04/19 16:00:58;;;;;;;15.73;4.60;;;12.00;99.90;;;;;;4967448;28;20037;-83
2022/04/19 16:03:24;;;;;;;13.80;4.13;;;12.00;99.90;;;;;;4957491;28;20019;-84
2022/04/19 16:05:51;;;;;;;19.02;3.78;;;11.90;99.90;;;;;;4962715;28;20022;-82
2022/04/19 16:08:16;;;;;;;15.05;4.10;;;11.90;99.90;;;;;;4954671;28;20055;-84
2022/04/19 16:10:42;;;;;;;14.10;3.42;;;11.90;99.90;;;;;;4953559;28;20069;-87
2022/04/19 16:13:12;;;;;;;12.80;4.47;;;11.80;99.90;;;;;;4967739;28;20517;-87
2022/04/19 16:15:38;;;;;;;12.32;3.10;;;11.90;99.90;;;;;;4971864;28;20560;-89
2022/04/19 16:23:32;;;;;;;15.43;3.22;;;12.00;99.90;;;;;;4955615;28;20082;-89
2022/04/19 16:25:59;;;;;;;17.40;3.60;;;12.00;99.90;;;;;;4960048;28;20023;-88
2022/04/19 16:28:30;;;;;;;17.98;3.05;;;11.90;99.90;;;;;;4969971;28;20553;-86
2022/04/19 16:30:59;;;;;;;18.90;3.87;;;11.90;99.90;;;;;;4968770;28;20406;-86
2022/04/19 16:33:25;;;;;;;13.23;3.22;;;11.90;99.90;;;;;;4971401;28;20114;-87
2022/04/19 16:35:52;;;;;;;10.27;3.17;;;11.90;99.90;;;;;;4953377;28;20111;-87
2022/04/19 16:38:18;;;;;;;19.38;4.32;;;12.00;99.90;;;;;;4964086;28;20050;-89
2022/04/19 16:40:45;;;;;;;9.65;2.55;;;11.90;99.90;;;;;;4952955;28;20024;-90
2022/04/19 16:43:12;;;;;;;12.75;2.85;;;11.80;99.90;;;;;;4960753;28;20027;-82
2022/04/19 16:45:39;;;;;;;17.13;4.72;;;12.00;99.90;;;;;;4961060;28;20035;-85
2022/04/19 16:48:06;;;;;;;20.48;4.38;;;11.90;99.90;;;;;;4956081;28;20435;-82
2022/04/19 16:50:32;;;;;;;11.75;3.45;;;11.90;99.90;;;;;;4954410;28;20027;-86
2022/04/19 16:52:59;;;;;;;9.30;2.30;;;11.90;99.90;;;;;;4965444;28;20081;-81
2022/04/19 16:55:28;;;;;;;16.90;3.58;;;11.70;99.90;;;;;;4952798;28;20028;-84
2022/04/19 16:57:57;;;;;;;12.68;3.10;;;11.80;99.90;;;;;;4964120;28;20038;-83
2022/04/19 17:00:24;;;;;;;11.93;3.47;;;11.80;99.90;;;;;;4954641;28;20446;-80
2022/04/19 17:02:50;;;;;;;16.95;3.72;;;11.80;99.90;;;;;;4954063;28;20456;-80
2022/04/19 17:05:16;;;;;;;14.38;3.83;;;11.80;99.90;;;;;;4959513;28;20023;-80
2022/04/19 17:07:42;;;;;;;15.00;3.47;;;11.80;99.90;;;;;;4967302;28;20483;-80
2022/04/19 17:10:08;;;;;;;18.30;3.85;;;11.80;99.90;;;;;;4964372;28;20019;-82
2022/04/19 17:12:34;;;;;;;8.55;2.38;;;11.60;99.90;;;;;;4961626;28;20144;-85
2022/04/19 17:14:59;;;;;;;11.30;2.85;;;11.60;99.90;;;;;;4954323;28;20023;-84
2022/04/19 17:17:25;;;;;;;12.32;3.33;;;11.60;99.90;;;;;;4961363;28;20035;-83
2022/04/19 17:19:51;;;;;;;12.63;3.60;;;11.60;99.90;;;;;;4955082;28;20034;-83
2022/04/19 17:22:17;;;;;;;13.88;2.83;;;11.50;99.90;;;;;;4963608;28;20023;-83
2022/04/19 17:24:43;;;;;;;20.58;4.38;;;11.40;99.90;;;;;;4967457;28;20020;-83
2022/04/19 17:27:08;;;;;;;10.43;3.60;;;11.50;99.90;;;;;;4962264;28;20019;-83
2022/04/19 17:29:38;;;;;;;12.85;3.75;;;11.40;99.90;;;;;;4968821;28;20529;-82
2022/04/19 17:32:04;;;;;;;13.45;3.83;;;11.20;99.90;;;;;;4955975;28;20028;-92
2022/04/19 17:34:30;;;;;;;14.05;4.05;;;11.20;99.90;;;;;;4953127;28;20038;-84
2022/04/19 17:36:57;;;;;;;9.25;3.45;;;11.20;99.90;;;;;;4953908;28;20031;-86
2022/04/19 17:39:22;;;;;;;11.43;3.70;;;11.10;99.90;;;;;;4969416;28;20023;-82
2022/04/19 17:41:48;;;;;;;16.33;3.90;;;11.20;99.90;;;;;;4958372;28;20035;-85
2022/04/19 17:44:14;;;;;;;14.35;4.20;;;11.10;99.90;;;;;;4972713;28;20031;-85
2022/04/19 17:46:40;;;;;;;14.15;4.70;;;11.20;99.90;;;;;;4963526;28;20414;-87
2022/04/19 17:49:06;;;;;;;13.20;4.10;;;11.10;99.90;;;;;;4956460;28;20019;-89
2022/04/19 17:57:02;;;;;;;10.60;3.30;;;11.10;99.90;;;;;;4967127;28;20514;-91
2022/04/19 17:59:28;;;;;;;17.13;4.15;;;11.00;99.90;;;;;;4961328;28;20039;-87
2022/04/19 18:01:54;;;;;;;9.23;3.63;;;11.00;99.90;;;;;;4956799;28;20081;-84
2022/04/19 18:04:20;;;;;;;11.75;3.30;;;11.00;99.90;;;;;;4955795;28;20026;-86
2022/04/19 18:06:46;;;;;;;12.93;3.70;;;10.90;99.90;;;;;;4955717;28;20035;-87
2022/04/19 18:09:11;;;;;;;10.45;4.22;;;10.80;99.90;;;;;;4967005;28;20418;-90
2022/04/19 18:11:37;;;;;;;11.88;4.03;;;10.80;99.90;;;;;;4960814;28;20175;-88
2022/04/19 18:14:04;;;;;;;10.95;4.40;;;10.80;99.90;;;;;;4958403;28;20023;-88
2022/04/19 18:16:30;;;;;;;13.40;3.95;;;10.80;99.90;;;;;;4974401;28;20113;-89
2022/04/19 18:18:56;;;;;;;8.15;3.75;;;10.70;99.90;;;;;;4965923;28;20109;-86
2022/04/19 18:21:21;;;;;;;11.10;3.60;;;10.70;99.90;;;;;;4965233;28;20045;-83
2022/04/19 18:26:32;;;;;;;10.88;4.18;;;10.60;99.90;;;;;;4961622;28;20053;-80
2022/04/19 18:28:58;;;;;;;8.95;3.70;;;10.60;99.90;;;;;;4963640;28;20042;-80
2022/04/19 18:31:27;;;;;;;11.77;4.85;;;10.60;99.90;;;;;;4966957;28;20435;-82
2022/04/19 18:33:57;;;;;;;10.35;3.63;;;10.60;99.90;;;;;;4965293;28;20023;-80
2022/04/19 18:36:23;;;;;;;16.83;3.90;;;10.40;99.90;;;;;;4959642;28;20206;-81
2022/04/19 18:38:49;;;;;;;10.30;3.70;;;10.60;99.90;;;;;;4975523;28;20036;-81
2022/04/19 18:41:15;;;;;;;8.98;3.70;;;10.50;99.90;;;;;;4974967;28;20027;-81
2022/04/19 18:43:41;;;;;;;11.35;3.40;;;10.50;99.90;;;;;;4964974;28;20019;-81
2022/04/19 18:46:08;;;;;;;8.15;3.28;;;10.50;99.90;;;;;;4968974;28;20054;-80
2022/04/19 18:48:33;;;;;;;8.05;3.38;;;10.50;99.90;;;;;;4954978;28;20517;-80
2022/04/19 18:50:59;;;;;;;7.88;3.15;;;10.50;99.90;;;;;;4954688;28;20023;-81
2022/04/19 18:53:25;;;;;;;11.30;3.30;;;10.50;99.90;;;;;;4956182;28;20506;-80
2022/04/19 18:55:53;;;;;;;6.43;3.00;;;10.50;99.90;;;;;;4966584;28;20035;-81
2022/04/19 18:58:19;;;;;;;7.88;3.10;;;10.40;99.90;;;;;;4969480;28;20615;-81
2022/04/19 19:00:45;;;;;;;9.50;3.35;;;10.30;99.90;;;;;;4962075;28;20411;-80
2022/04/19 19:03:12;;;;;;;9.23;4.20;;;10.20;99.90;;;;;;4964797;28;20179;-80
2022/04/19 19:05:39;;;;;;;5.65;3.30;;;10.30;99.90;;;;;;4961828;28;20114;-80
2022/04/19 19:08:07;;;;;;;5.30;2.92;;;10.30;99.90;;;;;;4971554;28;20027;-86
2022/04/19 19:10:33;;;;;;;8.93;3.30;;;10.20;99.90;;;;;;4967584;28;20045;-80
2022/04/19 19:12:59;;;;;;;6.38;3.38;;;10.20;99.90;;;;;;4963076;28;20562;-80
2022/04/19 19:15:25;;;;;;;8.02;3.33;;;10.30;99.90;;;;;;4973101;28;20407;-80
2022/04/19 19:17:51;;;;;;;7.60;3.47;;;10.20;99.90;;;;;;4974424;28;20031;-80
2022/04/19 19:20:16;;;;;;;11.93;3.60;;;10.20;99.90;;;;;;4956581;28;20042;-81
2022/04/19 19:22:42;;;;;;;7.85;3.10;;;10.30;99.90;;;;;;4955800;28;20098;-80
2022/04/19 19:25:08;;;;;;;5.55;2.65;;;10.30;99.90;;;;;;4954930;28;20027;-80
2022/04/19 19:27:35;;;;;;;7.45;2.88;;;10.20;99.90;;;;;;4954723;28;20055;-80
2022/04/19 19:30:03;;;;;;;7.20;3.20;;;10.20;99.90;;;;;;4953850;28;20106;-80
2022/04/19 19:32:28;;;;;;;10.60;3.70;;;10.10;99.90;;;;;;4955288;28;20023;-80
2022/04/19 19:34:54;;;;;;;8.18;2.88;;;10.20;99.90;;;;;;4954093;28;20487;-80
2022/04/19 19:37:19;;;;;;;7.10;2.78;;;10.10;99.90;;;;;;4961720;28;20032;-80
2022/04/19 19:39:45;;;;;;;7.82;2.70;;;10.10;99.90;;;;;;4955281;28;20027;-80
2022/04/19 19:42:13;;;;;;;6.32;3.00;;;10.10;99.90;;;;;;4969587;28;20041;-80
2022/04/19 19:44:38;;;;;;;6.63;2.80;;;10.00;99.90;;;;;;4954207;28;20114;-81
2022/04/19 19:47:04;;;;;;;4.82;2.58;;;9.90;99.90;;;;;;4962230;28;20110;-80
2022/04/19 19:49:30;;;;;;;8.30;2.70;;;9.80;99.90;;;;;;4964637;28;20106;-80
2022/04/19 19:51:56;;;;;;;7.18;2.95;;;10.00;99.90;;;;;;4973742;28;20445;-80
2022/04/19 19:54:23;;;;;;;6.00;2.60;;;10.00;99.90;;;;;;4956117;28;20023;-80
2022/04/19 19:56:48;;;;;;;3.50;2.05;;;10.00;99.90;;;;;;4960085;28;20022;-80
2022/04/19 19:59:14;;;;;;;4.95;2.53;;;9.90;99.90;;;;;;4965535;28;20039;-80
2022/04/19 20:01:40;;;;;;;5.57;2.10;;;10.00;99.90;;;;;;4964354;28;20026;-80
2022/04/19 20:04:06;;;;;;;7.45;2.38;;;9.80;99.90;;;;;;4957372;28;20094;-80
2022/04/19 20:06:35;;;;;;;6.93;2.25;;;9.90;99.90;;;;;;4969925;28;20085;-80
2022/04/19 20:09:01;;;;;;;8.35;2.35;;;9.90;99.90;;;;;;4973741;28;20022;-80
2022/04/19 20:11:27;;;;;;;4.95;2.15;;;9.90;99.90;;;;;;4963724;28;20047;-80
2022/04/19 20:13:53;;;;;;;4.22;2.17;;;9.90;99.90;;;;;;4967714;28;20025;-80
2022/04/19 20:16:19;;;;;;;5.35;2.45;;;9.80;99.90;;;;;;4956943;28;20023;-80
2022/04/19 20:18:44;;;;;;;5.13;2.42;;;9.70;99.90;;;;;;4958418;28;20019;-81
2022/04/19 20:21:10;;;;;;;6.03;2.10;;;9.90;99.90;;;;;;4973628;28;20019;-80
2022/04/19 20:23:36;;;;;;;3.80;2.20;;;9.80;99.90;;;;;;4962585;28;20027;-80
2022/04/19 20:26:05;;;;;;;5.60;2.35;;;9.80;99.90;;;;;;4968437;28;20023;-80
2022/04/19 20:28:31;;;;;;;5.28;2.42;;;9.90;99.90;;;;;;4963337;28;20054;-80
2022/04/19 20:30:57;;;;;;;5.13;2.17;;;9.90;99.90;;;;;;4973207;28;20010;-80
2022/04/19 20:33:23;;;;;;;4.85;2.08;;;9.80;99.90;;;;;;4973939;28;20031;-80
2022/04/19 20:35:49;;;;;;;3.78;2.13;;;9.80;99.90;;;;;;4961773;28;20028;-80
2022/04/19 20:38:15;;;;;;;4.25;2.10;;;9.80;99.90;;;;;;4954548;28;20082;-80
2022/04/19 20:40:41;;;;;;;8.05;2.30;;;9.90;99.90;;;;;;4954450;28;20419;-80
2022/04/19 20:43:07;;;;;;;8.82;2.40;;;9.90;99.90;;;;;;4954801;28;20399;-81
2022/04/19 20:45:33;;;;;;;5.75;2.70;;;9.70;99.90;;;;;;4954112;28;20111;-80
2022/04/19 20:50:45;;;;;;;4.28;2.17;;;9.80;99.90;;;;;;4954413;28;20054;-80
2022/04/19 20:53:12;;;;;;;4.53;2.33;;;9.80;99.90;;;;;;4953128;28;20117;-80
2022/04/19 20:55:38;;;;;;;5.75;2.05;;;9.70;99.90;;;;;;4954310;28;20023;-80
2022/04/19 20:58:08;;;;;;;5.18;2.10;;;9.80;99.90;;;;;;4954299;28;20035;-80
2022/04/19 21:00:34;;;;;;;7.28;2.58;;;9.80;99.90;;;;;;4953722;28;20024;-80
2022/04/19 21:03:01;;;;;;;3.28;2.13;;;9.90;99.90;;;;;;4953190;28;20031;-80
2022/04/19 21:05:28;;;;;;;3.45;2.10;;;9.90;99.90;;;;;;4953007;28;20032;-80
2022/04/19 21:07:55;;;;;;;3.05;2.03;;;9.80;99.90;;;;;;4954098;28;20032;-80
2022/04/19 21:10:21;;;;;;;4.10;2.38;;;9.80;99.90;;;;;;4954300;28;20055;-80
2022/04/19 21:12:48;;;;;;;4.43;2.15;;;9.80;99.90;;;;;;4956687;28;20082;-80
2022/04/19 21:15:15;;;;;;;3.55;2.10;;;9.80;99.90;;;;;;4956124;29;20020;-80
2022/04/19 21:17:42;;;;;;;3.90;2.17;;;9.80;99.90;;;;;;4957580;28;20034;-80
2022/04/19 21:20:11;;;;;;;3.15;2.10;;;9.70;99.90;;;;;;4957940;28;20027;-80
2022/04/19 21:22:42;;;;;;;3.47;2.05;;;9.80;99.90;;;;;;4956494;28;20031;-79
2022/04/19 21:25:09;;;;;;;3.13;1.90;;;9.70;99.90;;;;;;4966712;28;20372;-80
2022/04/19 21:27:35;;;;;;;4.03;1.75;;;9.70;99.90;;;;;;4976819;28;20034;-80
2022/04/19 21:30:02;;;;;;;5.25;1.80;;;9.70;99.90;;;;;;4975946;28;20170;-80
2022/04/19 21:32:31;;;;;;;5.90;1.75;;;9.80;99.90;;;;;;4976925;28;20039;-80
2022/04/19 21:35:01;;;;;;;2.67;1.50;;;9.80;99.90;;;;;;4973484;28;20023;-80